Time;durP1;ratioP1;P1;durP2;ratioP2;P2;SDS_P1;SDS_P2;PMS_P1;PMS_P2;Temp;Humidity;BMP_temperature;BMP_pressure;BME280_temperature;BME280_humidity;BME280_pressure;Samples;Min_cycle;Max_cycle;Signal;HPM_P1;HPM_P2
2022/10/17 00:02:51;;;;;;;15.05;7.90;;;22.50;81.20;;;;;;5090194;28;20069;-66
2022/10/17 00:05:57;;;;;;;14.70;6.30;;;22.50;81.40;;;;;;5091443;28;20035;-67
2022/10/17 00:09:03;;;;;;;12.23;5.75;;;22.50;81.40;;;;;;5091351;28;20394;-66
2022/10/17 00:12:09;;;;;;;14.32;6.00;;;22.50;81.50;;;;;;5087508;28;20028;-67
2022/10/17 00:15:15;;;;;;;11.68;5.47;;;22.50;81.40;;;;;;5084412;28;20372;-67
2022/10/17 00:18:22;;;;;;;14.18;6.72;;;22.50;81.30;;;;;;5090211;28;20380;-67
2022/10/17 00:21:28;;;;;;;9.63;5.95;;;22.50;81.20;;;;;;5089323;28;20070;-66
2022/10/17 00:23:54;;;;;;;9.70;6.35;;;22.50;81.10;;;;;;5087942;28;20020;-68
2022/10/17 00:26:21;;;;;;;13.70;5.80;;;22.40;81.00;;;;;;5091637;28;20039;-67
2022/10/17 00:28:49;;;;;;;15.07;6.82;;;22.40;81.00;;;;;;5089145;28;20043;-66
2022/10/17 00:31:17;;;;;;;12.27;6.28;;;22.40;80.90;;;;;;5090093;28;20052;-68
2022/10/17 00:33:44;;;;;;;14.95;8.38;;;22.40;81.00;;;;;;5088858;28;20029;-66
2022/10/17 00:36:20;;;;;;;11.38;7.03;;;22.40;80.90;;;;;;5088544;28;20074;-66
2022/10/17 00:38:48;;;;;;;18.08;6.93;;;22.40;81.00;;;;;;5088318;28;20020;-66
2022/10/17 00:41:17;;;;;;;11.45;6.43;;;22.40;81.00;;;;;;5094667;28;20056;-66
2022/10/17 00:43:51;;;;;;;12.95;6.57;;;22.40;81.00;;;;;;5088947;28;20107;-66
2022/10/17 00:46:18;;;;;;;21.33;7.43;;;22.40;81.10;;;;;;5090090;28;20031;-67
2022/10/17 00:48:45;;;;;;;13.45;7.15;;;22.40;81.20;;;;;;5089827;28;20024;-67
2022/10/17 00:51:12;;;;;;;15.63;7.18;;;22.40;81.50;;;;;;5089273;28;20015;-67
2022/10/17 00:53:39;;;;;;;15.82;7.75;;;22.30;81.50;;;;;;5090160;28;20671;-67
2022/10/17 00:56:06;;;;;;;14.18;8.07;;;22.40;81.70;;;;;;5091518;28;20383;-67
2022/10/17 00:58:33;;;;;;;13.52;6.10;;;22.30;82.40;;;;;;5091253;28;20509;-66
2022/10/17 01:01:00;;;;;;;24.73;8.18;;;22.30;81.80;;;;;;5090364;28;20004;-67
2022/10/17 01:03:27;;;;;;;12.50;5.72;;;22.30;82.50;;;;;;5084781;28;20551;-68
2022/10/17 01:05:53;;;;;;;13.45;6.78;;;22.30;81.90;;;;;;5089051;28;20355;-67
2022/10/17 01:08:20;;;;;;;24.98;7.70;;;22.30;81.90;;;;;;5090822;28;20031;-70
2022/10/17 01:11:08;;;;;;;14.65;7.18;;;22.30;81.90;;;;;;5089106;28;20020;-67
2022/10/17 01:13:45;;;;;;;17.77;6.75;;;22.30;82.10;;;;;;5090973;28;20024;-68
2022/10/17 01:16:44;;;;;;;23.25;8.20;;;22.30;82.30;;;;;;5093035;28;20063;-68
2022/10/17 01:19:25;;;;;;;19.58;7.97;;;22.30;82.30;;;;;;5095801;28;20131;-67
2022/10/17 01:22:10;;;;;;;14.50;7.25;;;22.30;82.30;;;;;;5092780;28;20133;-69
2022/10/17 01:24:58;;;;;;;15.82;8.23;;;22.30;82.30;;;;;;5093307;28;20542;-67
2022/10/17 01:27:29;;;;;;;24.23;8.68;;;22.30;82.20;;;;;;5092858;28;20032;-67
2022/10/17 01:30:26;;;;;;;15.52;7.95;;;22.30;82.20;;;;;;5093032;28;20023;-68
2022/10/17 01:33:04;;;;;;;16.73;8.35;;;22.20;82.10;;;;;;5095842;28;20020;-68
2022/10/17 01:35:43;;;;;;;15.02;7.25;;;22.20;82.20;;;;;;5093589;28;20020;-70
2022/10/17 01:38:48;;;;;;;15.45;6.70;;;22.20;82.10;;;;;;5093133;28;20143;-68
2022/10/17 01:41:24;;;;;;;19.85;7.45;;;22.20;82.20;;;;;;5083847;28;20395;-68
2022/10/17 01:43:57;;;;;;;17.88;7.63;;;22.20;82.20;;;;;;5091023;28;20510;-68
2022/10/17 01:46:35;;;;;;;25.77;7.32;;;22.20;82.20;;;;;;5093011;28;20498;-68
2022/10/17 01:49:04;;;;;;;11.68;6.35;;;22.20;82.20;;;;;;5091921;28;20039;-69
2022/10/17 01:51:38;;;;;;;12.65;6.15;;;22.10;82.30;;;;;;5088065;28;20017;-68
2022/10/17 01:54:13;;;;;;;11.25;5.25;;;22.10;82.30;;;;;;5094678;28;20379;-69
2022/10/17 01:56:41;;;;;;;15.93;5.45;;;22.10;82.40;;;;;;5078979;28;20036;-68
2022/10/17 01:59:21;;;;;;;8.25;5.10;;;22.10;82.40;;;;;;5090768;28;20027;-68
2022/10/17 02:01:51;;;;;;;7.78;4.68;;;22.10;82.40;;;;;;5091255;28;20066;-67
2022/10/17 02:04:17;;;;;;;14.50;5.70;;;22.10;82.40;;;;;;5092371;28;20470;-68
2022/10/17 02:06:44;;;;;;;9.45;4.90;;;22.00;82.10;;;;;;5093079;28;20035;-67
2022/10/17 02:09:24;;;;;;;7.57;5.18;;;22.00;81.90;;;;;;5092445;28;20379;-68
2022/10/17 02:12:10;;;;;;;26.90;7.75;;;22.00;81.70;;;;;;5089812;28;20030;-68
2022/10/17 02:14:42;;;;;;;20.25;9.13;;;22.00;81.60;;;;;;5055872;28;20035;-68
2022/10/17 02:17:45;;;;;;;15.50;6.72;;;22.00;81.40;;;;;;5090976;28;20446;-69
2022/10/17 02:20:18;;;;;;;30.83;8.65;;;22.00;81.30;;;;;;5091621;28;20501;-68
2022/10/17 02:22:55;;;;;;;10.95;6.47;;;22.00;81.20;;;;;;5091903;28;20088;-68
2022/10/17 02:25:41;;;;;;;14.68;6.15;;;21.90;81.00;;;;;;5093800;28;20340;-68
2022/10/17 02:28:38;;;;;;;15.38;6.70;;;21.90;81.00;;;;;;5090431;28;20020;-67
2022/10/17 02:31:23;;;;;;;22.58;8.18;;;21.90;80.90;;;;;;5091165;28;20085;-67
2022/10/17 02:34:01;;;;;;;15.32;7.50;;;21.90;80.80;;;;;;5093660;28;20016;-68
2022/10/17 02:36:37;;;;;;;13.07;7.53;;;21.90;80.70;;;;;;5090929;28;20032;-68
2022/10/17 02:39:05;;;;;;;18.45;7.78;;;21.90;80.80;;;;;;5092445;28;20035;-67
2022/10/17 02:41:33;;;;;;;12.23;6.22;;;21.80;80.90;;;;;;5093174;28;20180;-68
2022/10/17 02:44:02;;;;;;;17.67;7.97;;;21.80;81.00;;;;;;5094646;28;20030;-67
2022/10/17 02:46:31;;;;;;;12.32;6.50;;;21.80;81.20;;;;;;5092172;28;20544;-68
2022/10/17 02:49:23;;;;;;;14.23;7.20;;;21.80;81.30;;;;;;5090352;28;20426;-68
2022/10/17 02:52:03;;;;;;;11.75;6.00;;;21.90;81.40;;;;;;5092407;28;20450;-68
2022/10/17 02:54:51;;;;;;;11.07;6.25;;;21.90;81.40;;;;;;5097464;27;20792;-67
2022/10/17 02:57:35;;;;;;;11.57;6.50;;;21.90;81.50;;;;;;5092245;28;20025;-68
2022/10/17 03:00:05;;;;;;;11.85;5.40;;;21.80;81.50;;;;;;5089943;28;20077;-69
2022/10/17 03:02:46;;;;;;;9.40;5.72;;;21.80;81.40;;;;;;5092067;28;20386;-68
2022/10/17 03:05:15;;;;;;;10.13;5.40;;;21.80;81.30;;;;;;5092591;28;20095;-68
2022/10/17 03:07:42;;;;;;;9.98;6.20;;;21.80;81.30;;;;;;5092352;28;20028;-68
2022/10/17 03:10:08;;;;;;;10.25;5.57;;;21.80;81.20;;;;;;5090278;28;20024;-68
2022/10/17 03:12:35;;;;;;;36.17;6.28;;;21.80;81.10;;;;;;5092825;28;20044;-68
2022/10/17 03:15:41;;;;;;;18.27;6.35;;;21.80;81.20;;;;;;5095418;28;20016;-68
2022/10/17 03:18:47;;;;;;;14.70;6.18;;;21.80;81.20;;;;;;5089392;28;20028;-68
2022/10/17 03:21:53;;;;;;;25.58;6.90;;;21.80;81.30;;;;;;5094439;28;20136;-68
2022/10/17 03:24:59;;;;;;;15.77;5.93;;;21.80;81.30;;;;;;5090662;28;20479;-68
2022/10/17 03:28:05;;;;;;;13.13;7.10;;;21.80;81.70;;;;;;5090718;28;20035;-68
2022/10/17 03:30:32;;;;;;;10.73;5.90;;;21.80;81.90;;;;;;5087096;28;20337;-68
2022/10/17 03:32:59;;;;;;;15.52;7.30;;;21.70;81.60;;;;;;5090548;28;20024;-69
2022/10/17 03:35:26;;;;;;;14.50;6.93;;;21.70;81.20;;;;;;5091630;28;20494;-68
2022/10/17 03:37:55;;;;;;;13.85;6.40;;;21.70;80.90;;;;;;5094451;28;20355;-68
2022/10/17 03:40:21;;;;;;;27.15;9.88;;;21.70;80.50;;;;;;5093782;28;20405;-69
2022/10/17 03:42:48;;;;;;;23.95;12.70;;;21.70;80.50;;;;;;5091898;28;20092;-68
2022/10/17 03:45:14;;;;;;;17.15;9.73;;;21.60;80.50;;;;;;5090467;28;20035;-68
2022/10/17 03:47:41;;;;;;;14.77;8.02;;;21.60;80.40;;;;;;5091411;28;20121;-68
2022/10/17 03:50:08;;;;;;;14.95;6.55;;;21.60;80.10;;;;;;5091533;28;20657;-69
2022/10/17 03:52:34;;;;;;;12.82;5.45;;;21.60;80.00;;;;;;5093758;28;20065;-68
2022/10/17 03:55:00;;;;;;;9.90;5.40;;;21.60;79.80;;;;;;5089728;28;20020;-68
2022/10/17 03:57:27;;;;;;;15.52;6.28;;;21.60;79.70;;;;;;5089936;28;20024;-69
2022/10/17 03:59:53;;;;;;;12.95;5.97;;;21.60;79.50;;;;;;5089363;28;20031;-68
2022/10/17 04:02:20;;;;;;;9.63;5.32;;;21.60;79.40;;;;;;5091912;28;20035;-67
2022/10/17 04:04:46;;;;;;;11.30;6.63;;;21.60;79.30;;;;;;5087426;28;20121;-70
2022/10/17 04:07:13;;;;;;;12.93;5.82;;;21.60;78.70;;;;;;5091398;28;20043;-69
2022/10/17 04:09:39;;;;;;;10.35;5.13;;;21.50;79.40;;;;;;5088525;28;20028;-67
2022/10/17 04:12:06;;;;;;;17.00;6.00;;;21.40;79.90;;;;;;5091327;28;20111;-67
2022/10/17 04:14:32;;;;;;;9.73;5.97;;;21.40;80.10;;;;;;5095648;28;20013;-70
2022/10/17 04:16:59;;;;;;;12.25;4.57;;;21.50;80.30;;;;;;5088543;28;20051;-69
2022/10/17 04:19:25;;;;;;;8.30;4.10;;;21.50;80.20;;;;;;5092401;28;20068;-68
2022/10/17 04:21:52;;;;;;;8.15;3.72;;;21.50;80.20;;;;;;5089818;28;20490;-69
2022/10/17 04:24:18;;;;;;;11.38;4.45;;;21.50;80.00;;;;;;5090960;28;20040;-69
2022/10/17 04:26:45;;;;;;;9.00;4.03;;;21.50;79.90;;;;;;5086308;28;20106;-69
2022/10/17 04:29:11;;;;;;;15.45;5.93;;;21.50;79.80;;;;;;5088677;28;20107;-71
2022/10/17 04:31:38;;;;;;;14.55;5.93;;;21.50;79.70;;;;;;5088602;28;20020;-70
2022/10/17 04:34:04;;;;;;;20.02;4.75;;;21.50;79.70;;;;;;5088313;28;20088;-70
2022/10/17 04:36:31;;;;;;;10.82;5.38;;;21.50;79.90;;;;;;5091461;28;20029;-70
2022/10/17 04:38:59;;;;;;;11.13;4.38;;;21.50;80.40;;;;;;5088207;28;20512;-70
2022/10/17 04:41:25;;;;;;;11.20;4.57;;;21.50;80.60;;;;;;5092895;28;20153;-71
2022/10/17 04:43:51;;;;;;;10.98;4.28;;;21.50;80.80;;;;;;5089242;28;20047;-71
2022/10/17 04:46:18;;;;;;;13.27;5.10;;;21.50;81.00;;;;;;5088992;28;20473;-70
2022/10/17 04:48:45;;;;;;;19.02;5.45;;;21.50;81.10;;;;;;5091152;28;20028;-70
2022/10/17 04:51:51;;;;;;;15.43;5.20;;;21.50;81.10;;;;;;5095608;28;20614;-71
2022/10/17 04:54:57;;;;;;;9.88;4.82;;;21.60;81.20;;;;;;5090610;28;20027;-71
2022/10/17 04:58:03;;;;;;;26.58;4.97;;;21.60;81.40;;;;;;5096481;28;20026;-71
2022/10/17 05:01:09;;;;;;;11.95;4.75;;;21.60;81.70;;;;;;5094044;28;20051;-68
2022/10/17 05:04:15;;;;;;;8.98;4.40;;;21.60;81.70;;;;;;5093935;28;20067;-69
2022/10/17 05:07:24;;;;;;;12.82;4.97;;;21.60;81.50;;;;;;5091192;28;20047;-69
2022/10/17 05:10:30;;;;;;;14.05;4.60;;;21.60;81.20;;;;;;5092569;28;20020;-68
2022/10/17 05:13:36;;;;;;;7.97;3.70;;;21.60;80.90;;;;;;5091828;28;20107;-69
2022/10/17 05:16:42;;;;;;;12.40;4.80;;;21.60;80.70;;;;;;5092684;28;20461;-68
2022/10/17 05:19:48;;;;;;;8.27;3.75;;;21.60;80.40;;;;;;5096423;28;20146;-68
2022/10/17 05:22:54;;;;;;;7.93;3.60;;;21.60;80.30;;;;;;5091845;28;20020;-68
2022/10/17 05:26:00;;;;;;;9.82;4.10;;;21.60;80.20;;;;;;5089955;28;20482;-69
2022/10/17 05:29:06;;;;;;;14.52;5.30;;;21.60;80.10;;;;;;5090781;28;20035;-68
2022/10/17 05:32:12;;;;;;;15.43;4.78;;;21.60;80.00;;;;;;5091361;28;20134;-68
2022/10/17 05:35:18;;;;;;;12.77;4.60;;;21.60;79.90;;;;;;5087657;28;20627;-68
2022/10/17 05:38:24;;;;;;;13.95;5.65;;;21.60;79.60;;;;;;5095639;28;20036;-68
2022/10/17 05:41:30;;;;;;;13.00;4.30;;;21.60;79.40;;;;;;5093303;28;20031;-69
2022/10/17 05:44:16;;;;;;;;;;;21.60;79.10;;;;;;5090308;28;20545;-68
2022/10/17 05:47:22;;;;;;;10.15;4.00;;;21.60;78.80;;;;;;5091925;28;19923;-69
2022/10/17 05:50:08;;;;;;;;;;;21.60;78.50;;;;;;5091116;28;20382;-68
2022/10/17 05:53:14;;;;;;;9.77;3.72;;;21.60;78.30;;;;;;5090230;28;19949;-69
2022/10/17 05:56:21;;;;;;;9.68;3.75;;;21.60;78.20;;;;;;5091732;28;20111;-68
2022/10/17 05:59:27;;;;;;;10.40;4.05;;;21.60;78.30;;;;;;5093459;28;20063;-68
2022/10/17 06:02:33;;;;;;;11.48;4.05;;;21.70;78.30;;;;;;5091340;28;20021;-68
2022/10/17 06:05:39;;;;;;;8.75;4.53;;;21.70;78.20;;;;;;5091824;28;20024;-68
2022/10/17 06:08:07;;;;;;;13.05;3.72;;;21.70;78.00;;;;;;5091289;28;20027;-68
2022/10/17 06:11:13;;;;;;;13.55;4.32;;;21.70;77.80;;;;;;5090878;28;20020;-68
2022/10/17 06:14:19;;;;;;;19.67;6.13;;;21.70;77.80;;;;;;5090420;28;20048;-68
2022/10/17 06:17:27;;;;;;;13.43;4.07;;;21.80;77.90;;;;;;5089026;28;20044;-70
2022/10/17 06:20:33;;;;;;;13.25;4.15;;;21.80;78.10;;;;;;5092412;28;20380;-68
2022/10/17 06:23:39;;;;;;;21.42;5.18;;;21.80;78.00;;;;;;5089614;28;20562;-68
2022/10/17 06:26:46;;;;;;;12.05;3.33;;;21.90;78.00;;;;;;5090599;28;20590;-68
2022/10/17 06:29:52;;;;;;;11.95;4.05;;;21.90;77.80;;;;;;5093183;28;20028;-71
2022/10/17 06:32:58;;;;;;;9.63;3.97;;;21.90;77.50;;;;;;5087273;28;20020;-68
2022/10/17 06:36:04;;;;;;;10.48;4.80;;;21.90;77.20;;;;;;5094724;28;20020;-68
2022/10/17 06:39:10;;;;;;;11.30;4.22;;;21.90;76.90;;;;;;5091540;28;20103;-68
2022/10/17 06:42:16;;;;;;;9.02;4.03;;;22.00;76.70;;;;;;5108168;27;20455;-69
2022/10/17 06:45:22;;;;;;;11.93;4.82;;;22.00;76.50;;;;;;5091304;28;20028;-68
2022/10/17 06:48:28;;;;;;;13.25;4.68;;;22.00;76.50;;;;;;5091742;28;20032;-69
2022/10/17 06:51:35;;;;;;;12.55;5.65;;;22.00;76.40;;;;;;5095170;28;20462;-68
2022/10/17 06:54:41;;;;;;;13.60;4.75;;;22.00;76.30;;;;;;5088593;28;20047;-69
2022/10/17 06:57:47;;;;;;;12.10;4.75;;;22.00;76.10;;;;;;5088794;28;20058;-69
2022/10/17 07:00:53;;;;;;;15.43;4.72;;;22.10;76.00;;;;;;5089640;28;20023;-73
2022/10/17 07:03:59;;;;;;;11.25;4.10;;;22.10;75.90;;;;;;5090264;28;20438;-71
2022/10/17 07:07:05;;;;;;;11.52;5.65;;;22.10;75.80;;;;;;5090109;28;20024;-68
2022/10/17 07:10:11;;;;;;;12.95;3.97;;;22.10;76.10;;;;;;5091352;28;20043;-69
2022/10/17 07:13:17;;;;;;;10.15;4.20;;;22.10;76.10;;;;;;5089962;28;20475;-69
2022/10/17 07:16:23;;;;;;;7.00;4.13;;;22.20;76.20;;;;;;5094063;28;20502;-69
2022/10/17 07:19:09;;;;;;;;;;;22.20;76.40;;;;;;5089051;28;20031;-70
2022/10/17 07:22:15;;;;;;;13.10;6.38;;;22.20;76.30;;;;;;5090441;28;19910;-69
2022/10/17 07:25:21;;;;;;;13.48;4.68;;;22.20;75.70;;;;;;5090468;28;20028;-68
2022/10/17 07:28:07;;;;;;;;;;;22.20;75.40;;;;;;5089861;28;20028;-69
2022/10/17 07:31:13;;;;;;;13.00;4.25;;;22.20;75.10;;;;;;5091966;28;20359;-71
2022/10/17 07:33:59;;;;;;;;;;;22.20;74.90;;;;;;5089687;28;20032;-69
2022/10/17 07:37:06;;;;;;;10.55;3.88;;;22.20;74.90;;;;;;5088840;28;19919;-70
2022/10/17 07:40:12;;;;;;;17.85;4.30;;;22.20;75.00;;;;;;5091775;28;20016;-68
2022/10/17 07:43:18;;;;;;;8.75;3.20;;;22.20;75.10;;;;;;5093211;28;20103;-68
2022/10/17 07:46:24;;;;;;;12.55;5.30;;;22.20;75.00;;;;;;5089213;28;20051;-68
2022/10/17 07:49:30;;;;;;;17.27;5.57;;;22.20;74.80;;;;;;5091109;28;20642;-68
2022/10/17 07:52:36;;;;;;;18.25;6.53;;;22.20;74.70;;;;;;5091152;28;20081;-68
2022/10/17 07:55:43;;;;;;;8.73;4.82;;;22.20;75.00;;;;;;5087637;28;20039;-70
2022/10/17 07:58:50;;;;;;;11.30;4.95;;;22.20;75.30;;;;;;5089781;28;20031;-71
2022/10/17 08:01:35;;;;;;;;;;;22.20;75.50;;;;;;5086829;28;21123;-68
2022/10/17 08:04:42;;;;;;;19.02;4.75;;;22.20;75.70;;;;;;5090494;28;19986;-69
2022/10/17 08:07:48;;;;;;;18.75;5.07;;;22.30;76.00;;;;;;5089620;28;20065;-68
2022/10/17 08:10:54;;;;;;;9.27;3.80;;;22.30;75.90;;;;;;5076370;28;20024;-68
2022/10/17 08:14:00;;;;;;;9.60;3.50;;;22.30;75.60;;;;;;5090157;28;20095;-68
2022/10/17 08:17:06;;;;;;;7.72;3.72;;;22.30;75.50;;;;;;5087779;28;20132;-68
2022/10/17 08:20:12;;;;;;;8.23;4.05;;;22.40;75.70;;;;;;5080586;28;20055;-68
2022/10/17 08:23:18;;;;;;;9.32;4.35;;;22.40;75.40;;;;;;5089943;28;20027;-69
2022/10/17 08:26:24;;;;;;;6.05;3.90;;;22.40;74.90;;;;;;5092908;28;20387;-68
2022/10/17 08:29:33;;;;;;;4.80;3.15;;;22.50;74.70;;;;;;5091845;28;20032;-68
2022/10/17 08:32:39;;;;;;;9.25;3.58;;;22.40;75.30;;;;;;5095608;28;20399;-68
2022/10/17 08:35:45;;;;;;;11.98;5.15;;;22.50;74.80;;;;;;5099648;28;20076;-69
2022/10/17 08:38:51;;;;;;;12.60;4.18;;;22.50;74.60;;;;;;5092240;28;20027;-69
2022/10/17 08:41:17;;;;;;;9.63;4.28;;;22.50;74.60;;;;;;5097622;28;20566;-69
2022/10/17 08:44:22;;;;;;;12.95;3.97;;;22.50;74.60;;;;;;5097251;28;20030;-69
2022/10/17 08:47:34;;;;;;;16.15;4.97;;;22.60;74.60;;;;;;5063665;28;20039;-68
2022/10/17 08:50:23;;;;;;;12.75;4.82;;;22.60;74.20;;;;;;5091568;28;20024;-70
2022/10/17 08:53:22;;;;;;;14.50;4.90;;;22.60;74.00;;;;;;5094447;28;20086;-68
2022/10/17 08:56:34;;;;;;;13.35;4.57;;;22.60;73.80;;;;;;5093907;28;20162;-68
2022/10/17 08:59:47;;;;;;;16.48;4.28;;;22.60;73.70;;;;;;5090577;28;21474;-70
2022/10/17 09:02:59;;;;;;;13.25;5.43;;;22.60;73.70;;;;;;5094477;28;20036;-68
2022/10/17 09:06:01;;;;;;;19.35;5.63;;;22.60;73.60;;;;;;5082269;28;20036;-72
2022/10/17 09:09:01;;;;;;;20.27;5.90;;;22.70;73.90;;;;;;5090996;27;20081;-72
2022/10/17 09:11:30;;;;;;;21.15;5.97;;;22.70;74.00;;;;;;5093650;28;20027;-69
2022/10/17 09:14:15;;;;;;;25.42;6.07;;;22.80;74.00;;;;;;5092294;28;20024;-68
2022/10/17 09:17:19;;;;;;;21.10;6.75;;;22.80;73.60;;;;;;5093322;28;20039;-68
2022/10/17 09:20:29;;;;;;;19.58;6.55;;;22.80;73.00;;;;;;5086273;28;20040;-69
2022/10/17 09:23:18;;;;;;;23.00;6.45;;;22.80;72.80;;;;;;5092621;28;20032;-67
2022/10/17 09:26:24;;;;;;;21.58;6.68;;;22.90;72.40;;;;;;5092328;28;20039;-69
2022/10/17 09:28:58;;;;;;;8.23;4.68;;;22.80;72.10;;;;;;5090564;28;20059;-67
2022/10/17 09:31:29;;;;;;;12.30;4.50;;;22.80;71.80;;;;;;5091970;28;20510;-67
2022/10/17 09:33:59;;;;;;;12.73;5.32;;;22.80;71.70;;;;;;5090809;28;20008;-68
2022/10/17 09:36:34;;;;;;;16.48;5.95;;;22.90;71.60;;;;;;5092970;28;20012;-67
2022/10/17 09:39:11;;;;;;;14.45;6.68;;;22.90;71.60;;;;;;5094258;28;20027;-67
2022/10/17 09:41:52;;;;;;;17.88;7.47;;;22.90;71.50;;;;;;5089650;28;20031;-68
2022/10/17 09:44:32;;;;;;;14.80;6.20;;;23.00;71.50;;;;;;5093734;28;20069;-67
2022/10/17 09:47:05;;;;;;;13.30;4.95;;;23.00;71.50;;;;;;5089108;28;20194;-68
2022/10/17 09:49:37;;;;;;;13.57;4.90;;;23.10;71.40;;;;;;5091529;28;20039;-68
2022/10/17 09:52:09;;;;;;;9.38;5.07;;;23.10;71.20;;;;;;5091744;28;20073;-69
2022/10/17 09:54:45;;;;;;;14.57;4.95;;;23.20;70.80;;;;;;5087693;28;20028;-69
2022/10/17 09:57:13;;;;;;;10.80;4.63;;;23.20;70.80;;;;;;5090850;28;20032;-69
2022/10/17 09:59:43;;;;;;;11.68;4.15;;;23.20;70.90;;;;;;5091152;28;20494;-68
2022/10/17 10:02:12;;;;;;;30.95;6.15;;;23.30;70.90;;;;;;5091626;28;20084;-71
2022/10/17 10:05:15;;;;;;;11.23;3.65;;;23.40;70.50;;;;;;5104829;27;20032;-68
2022/10/17 10:07:44;;;;;;;12.00;4.72;;;23.50;70.00;;;;;;5090408;28;20051;-69
2022/10/17 10:10:25;;;;;;;8.80;3.65;;;23.60;69.50;;;;;;5092231;28;20962;-67
2022/10/17 10:13:19;;;;;;;9.25;3.88;;;23.70;69.10;;;;;;5085791;28;20395;-69
2022/10/17 10:15:50;;;;;;;9.45;3.63;;;23.80;69.10;;;;;;5090581;28;20101;-68
2022/10/17 10:18:26;;;;;;;10.25;5.53;;;23.90;68.80;;;;;;5092467;28;20574;-69
2022/10/17 10:21:12;;;;;;;8.75;3.65;;;24.00;68.50;;;;;;5091001;28;20032;-68
2022/10/17 10:23:41;;;;;;;7.97;3.53;;;24.00;68.00;;;;;;5093566;28;20425;-67
2022/10/17 10:26:18;;;;;;;13.48;4.65;;;24.00;67.50;;;;;;5091017;28;20032;-68
2022/10/17 10:28:55;;;;;;;12.48;4.13;;;24.00;67.40;;;;;;5091371;28;20028;-69
2022/10/17 10:31:31;;;;;;;9.60;4.50;;;24.10;67.40;;;;;;5090716;28;20036;-68
2022/10/17 10:34:01;;;;;;;10.23;3.47;;;24.10;67.30;;;;;;5090829;28;20471;-68
2022/10/17 10:36:53;;;;;;;14.38;4.18;;;24.10;67.20;;;;;;5095728;28;20020;-68
2022/10/17 10:40:01;;;;;;;9.25;3.47;;;24.10;66.90;;;;;;5087903;28;20064;-67
2022/10/17 10:43:10;;;;;;;7.55;3.90;;;24.20;66.70;;;;;;5092887;28;20028;-68
2022/10/17 10:45:36;;;;;;;6.32;3.85;;;24.30;66.50;;;;;;5091764;28;20507;-68
2022/10/17 10:48:42;;;;;;;7.95;3.53;;;24.40;66.20;;;;;;5090643;28;20059;-68
2022/10/17 10:51:28;;;;;;;;;;;24.40;65.40;;;;;;5089621;28;20039;-68
2022/10/17 10:54:50;;;;;;;6.30;2.78;;;24.40;65.30;;;;;;5092422;28;20355;-67
2022/10/17 10:57:56;;;;;;;6.63;3.78;;;24.50;65.50;;;;;;5003760;28;20022;-67
2022/10/17 11:00:42;;;;;;;;;;;24.60;66.10;;;;;;5088130;28;20031;-69
2022/10/17 11:03:51;;;;;;;19.45;3.80;;;24.70;65.20;;;;;;5092814;28;20028;-70
2022/10/17 11:06:57;;;;;;;10.82;4.13;;;24.70;64.60;;;;;;5088965;28;20407;-68
2022/10/17 11:09:42;;;;;;;;;;;24.70;64.50;;;;;;5088007;28;20040;-69
2022/10/17 11:12:31;;;;;;;10.38;3.72;;;24.80;64.20;;;;;;5091953;28;19940;-68
2022/10/17 11:15:44;;;;;;;8.75;3.08;;;24.80;64.10;;;;;;5093929;28;20448;-68
2022/10/17 11:18:52;;;;;;;8.88;4.32;;;24.90;63.70;;;;;;5068441;28;20036;-69
2022/10/17 11:22:07;;;;;;;6.88;3.95;;;24.90;63.20;;;;;;5090942;28;20034;-69
2022/10/17 11:25:13;;;;;;;4.72;3.60;;;24.90;63.20;;;;;;5091198;28;20114;-68
2022/10/17 11:27:59;;;;;;;;;;;25.00;62.70;;;;;;5087531;28;20395;-68
2022/10/17 11:30:45;;;;;;;11.15;4.25;;;25.10;62.40;;;;;;5088703;28;19904;-68
2022/10/17 11:34:10;;;;;;;11.20;3.80;;;25.10;62.40;;;;;;5092214;28;20092;-68
2022/10/17 11:37:16;;;;;;;5.95;3.20;;;25.20;62.40;;;;;;5090039;28;20054;-70
2022/10/17 11:39:48;;;;;;;7.85;3.30;;;25.20;62.10;;;;;;5086987;28;20036;-69
2022/10/17 11:42:57;;;;;;;11.23;3.95;;;25.20;61.80;;;;;;5092170;28;20073;-69
2022/10/17 11:46:03;;;;;;;7.32;3.38;;;25.30;62.00;;;;;;5088267;28;20386;-68
2022/10/17 11:48:58;;;;;;;;;;;25.30;61.50;;;;;;5091843;28;20417;-67
2022/10/17 11:52:04;;;;;;;7.22;2.88;;;25.40;61.40;;;;;;5088613;28;19965;-68
2022/10/17 11:54:50;;;;;;;;;;;25.40;61.30;;;;;;5090473;28;20386;-69
2022/10/17 11:58:21;;;;;;;5.68;2.97;;;25.50;61.20;;;;;;5089381;28;19923;-69
2022/10/17 12:01:33;;;;;;;8.32;3.40;;;25.50;61.10;;;;;;5086350;28;20035;-69
2022/10/17 12:04:33;;;;;;;9.20;3.88;;;25.50;61.10;;;;;;5087503;28;20614;-68
2022/10/17 12:07:44;;;;;;;9.73;3.78;;;25.60;61.00;;;;;;5089499;28;20036;-68
2022/10/17 12:10:38;;;;;;;8.95;3.70;;;25.50;61.00;;;;;;5088025;28;20438;-68
2022/10/17 12:13:26;;;;;;;10.18;3.10;;;25.60;60.90;;;;;;5087688;28;20031;-69
2022/10/17 12:16:20;;;;;;;10.35;4.10;;;25.50;60.70;;;;;;5086412;28;20083;-68
2022/10/17 12:19:05;;;;;;;14.70;5.20;;;25.50;60.80;;;;;;5086255;28;20040;-68
2022/10/17 12:21:57;;;;;;;10.32;4.28;;;25.50;61.00;;;;;;5087477;28;20024;-68
2022/10/17 12:24:54;;;;;;;16.90;4.22;;;25.50;61.20;;;;;;5084725;28;20036;-71
2022/10/17 12:28:05;;;;;;;11.30;3.88;;;25.50;61.70;;;;;;5087217;28;20032;-70
2022/10/17 12:30:58;;;;;;;10.60;4.22;;;25.50;62.00;;;;;;5088147;28;20121;-70
2022/10/17 12:34:10;;;;;;;10.40;3.20;;;25.50;61.00;;;;;;5086144;28;20016;-72
2022/10/17 12:37:16;;;;;;;10.90;4.75;;;25.50;61.10;;;;;;5086938;28;20040;-68
2022/10/17 12:40:22;;;;;;;5.40;3.15;;;25.60;61.40;;;;;;5087040;28;20020;-68
2022/10/17 12:42:50;;;;;;;7.03;3.05;;;25.60;61.00;;;;;;5089292;28;20060;-70
2022/10/17 12:45:48;;;;;;;8.13;3.60;;;25.60;61.50;;;;;;5075369;28;20491;-68
2022/10/17 12:48:35;;;;;;;12.63;4.80;;;25.50;61.40;;;;;;5088153;28;20147;-68
2022/10/17 12:51:17;;;;;;;19.90;5.10;;;25.60;61.90;;;;;;5086231;28;20483;-68
2022/10/17 12:53:59;;;;;;;15.05;4.65;;;25.60;62.20;;;;;;5087889;28;20090;-69
2022/10/17 12:56:37;;;;;;;10.65;3.67;;;25.60;61.90;;;;;;5087860;28;20020;-71
2022/10/17 12:59:19;;;;;;;12.35;4.15;;;25.60;61.60;;;;;;5087848;28;20030;-68
2022/10/17 13:01:49;;;;;;;6.30;3.05;;;25.60;61.30;;;;;;5088957;28;20413;-68
2022/10/17 13:04:17;;;;;;;7.80;4.40;;;25.50;61.10;;;;;;5087112;28;20032;-68
2022/10/17 13:06:53;;;;;;;13.00;4.13;;;25.60;61.20;;;;;;5083189;28;20039;-68
2022/10/17 13:09:28;;;;;;;6.78;3.15;;;25.60;61.20;;;;;;5091431;28;20019;-68
2022/10/17 13:11:58;;;;;;;8.00;3.78;;;25.60;61.20;;;;;;5089682;28;20122;-71
2022/10/17 13:14:26;;;;;;;8.00;4.15;;;25.60;60.90;;;;;;5089828;28;20016;-69
2022/10/17 13:17:02;;;;;;;12.95;3.60;;;25.60;60.80;;;;;;5088570;28;20067;-68
2022/10/17 13:19:43;;;;;;;8.55;3.72;;;25.60;60.90;;;;;;5088193;28;20023;-68
2022/10/17 13:22:17;;;;;;;10.25;3.45;;;25.60;61.10;;;;;;5089955;28;20024;-68
2022/10/17 13:24:44;;;;;;;8.93;3.37;;;25.50;61.00;;;;;;5088730;28;20115;-69
2022/10/17 13:27:32;;;;;;;6.40;3.08;;;25.50;61.00;;;;;;5089911;28;20040;-68
2022/10/17 13:30:00;;;;;;;5.35;4.07;;;25.50;61.00;;;;;;5089904;28;20077;-68
2022/10/17 13:32:35;;;;;;;10.50;4.35;;;25.50;61.00;;;;;;5089758;28;20368;-68
2022/10/17 13:35:07;;;;;;;15.25;5.07;;;25.50;61.30;;;;;;5090466;28;20012;-67
2022/10/17 13:37:34;;;;;;;8.50;3.25;;;25.40;62.00;;;;;;5089000;28;20101;-68
2022/10/17 13:40:01;;;;;;;7.25;4.72;;;25.50;61.80;;;;;;5092068;28;20103;-68
2022/10/17 13:42:38;;;;;;;21.17;5.53;;;25.40;61.90;;;;;;5089345;28;20032;-68
2022/10/17 13:45:17;;;;;;;9.98;4.78;;;25.50;62.70;;;;;;5089618;28;20016;-68
2022/10/17 13:47:43;;;;;;;9.80;3.83;;;25.50;62.90;;;;;;5090820;28;20115;-69
2022/10/17 13:50:22;;;;;;;10.05;3.80;;;25.50;62.80;;;;;;5091543;28;20466;-69
2022/10/17 13:53:04;;;;;;;12.52;3.63;;;25.50;62.60;;;;;;5092373;28;20047;-69
2022/10/17 13:55:30;;;;;;;5.13;3.13;;;25.40;62.30;;;;;;5090182;28;20506;-68
2022/10/17 13:58:15;;;;;;;8.48;3.20;;;25.40;62.00;;;;;;5090142;28;20482;-68
2022/10/17 14:00:43;;;;;;;11.75;3.50;;;25.50;61.80;;;;;;5092168;28;20016;-69
2022/10/17 14:03:11;;;;;;;8.05;3.58;;;25.40;61.80;;;;;;5089585;28;20028;-69
2022/10/17 14:06:00;;;;;;;9.38;4.22;;;25.40;61.80;;;;;;5091449;28;20074;-71
2022/10/17 14:08:27;;;;;;;7.88;3.63;;;25.40;61.80;;;;;;5090221;28;20020;-68
2022/10/17 14:10:53;;;;;;;7.35;4.18;;;25.50;61.90;;;;;;5091728;28;20016;-68
2022/10/17 14:13:29;;;;;;;7.18;3.35;;;25.40;61.90;;;;;;5094715;28;20020;-68
2022/10/17 14:15:59;;;;;;;10.90;4.30;;;25.40;62.00;;;;;;5087746;28;20071;-68
2022/10/17 14:18:31;;;;;;;9.38;4.95;;;25.30;61.90;;;;;;5091863;28;20024;-68
2022/10/17 14:20:58;;;;;;;8.52;3.78;;;25.30;62.00;;;;;;5090381;28;20030;-68
2022/10/17 14:23:40;;;;;;;9.98;4.22;;;25.30;62.00;;;;;;5091454;28;20024;-70
2022/10/17 14:26:27;;;;;;;8.38;4.38;;;25.30;62.00;;;;;;5090565;28;20071;-68